Amatorska stacja pogodowa orzepowice24.pl
Bogaty zestaw statystyk w zakładce „DOKŁADNE STATYSTYKI”

Visit our other weather sites:

Template documentation
and downloads

SZCZEGÓŁOWE STATYSTYKI

weather34-X5


You find our weather info also at:

UK Metoffice

WeatherCloud

Weather Underground

AWEKAS

WeatherlinkIP

Citizen Weather Observer Program (CWOP)

HAMweather, WeatherForYou, PWS Weather


No particular awareness of the weather is required.    There are no Weather-warnings

Raporty METAR w pobliżu

   
EPKT - Katowice
Zaktualizowano: 17-12-2017 10:30
Light Snow, Mgła, W większości pochmurnie  
Light Snow, Mgła, W większości pochmurnie  
   Wiatr: WSW 7.4 km/h
Wiatr: WSW 7.4 km/h
Temperatura: 1°C
Wind Chill: -1°C
Punkt rosy: -1°C
Wilgotność: 87%
Ciśnienie: 1016 hPa
Zachmurzenie: W większości pochmurnie
Widoczność: 5 km
Szczegóły dotyczące chmur: W większości pochmurnie 1600 ft,
W większości pochmurnie 3000 ft
EPKT 170930Z 24004KT 4600 -SN BR BKN016 BKN030 01/M01 Q1016
EPKK - Kraków
Zaktualizowano: 17-12-2017 10:30
Mgła, W większości pochmurnie  
Mgła, W większości pochmurnie  
   Wiatr: varies 1.9 km/h
Wiatr: varies 1.9 km/h
Temperatura: 0°C
Punkt rosy: -1°C
Wilgotność: 93%
Ciśnienie: 1017 hPa
Zachmurzenie: W większości pochmurnie
Widoczność: 2 km
Szczegóły dotyczące chmur: Częściowe Zachmurzenie 1500 ft,
W większości pochmurnie 2000 ft
EPKK 170930Z VRB01KT 2000 BR SCT015 BKN020 M00/M01 Q1017 R25/29//95
LKMT - Ostrava
Zaktualizowano: 17-12-2017 10:30
Częściowe Zachmurzenie  
Częściowe Zachmurzenie  
   Wiatr: SSW 18.5 km/h
Wiatr: SSW 18.5 km/h
Temperatura: 2°C
Wind Chill: -2°C
Punkt rosy: -2°C
Wilgotność: 75%
Ciśnienie: 1017 hPa
Zachmurzenie: Częściowe Zachmurzenie
Widoczność: Więcej niż 10 km
Szczegóły dotyczące chmur: Częściowe Zachmurzenie 4600 ft
LKMT 170930Z 21010KT 9999 SCT046 02/M02 Q1017 NOSIG
LZZI - Žilina
Zaktualizowano: 17-12-2017 10:30
Całkowite zachmurzenie  
Całkowite zachmurzenie  
   Wiatr: SW 3.7 km/h
Wiatr: SW 3.7 km/h
Temperatura: -1°C
Punkt rosy: -2°C
Wilgotność: 93%
Ciśnienie: 1017 hPa
Zachmurzenie: Całkowite zachmurzenie
Widoczność: 7 km
Szczegóły dotyczące chmur: Całkowite zachmurzenie 3000 ft
LZZI 170930Z 23002KT 7000 OVC030 M01/M02 Q1017
  

Skrypt opracowany przez  Saratoga-weather.org Dostosowany do szablonu przez  Weerstation Leuven